This is the latest recevied weather packets stored in our database for station/object KE8WMS. If no packets are shown the sender has not sent any weather packets the latest 10 day(s).
| Time | Temp. | Humidity | Pressure | Rain* | Wind** | Luminosity | Snow |
|---|---|---|---|---|---|---|---|
| 1777567344 | 8.33° C | 76% | 1012.1 hPa | 0 mm | - | 228 W/m² | - |
| 1777567042 | 8.89° C | 75% | 1012.1 hPa | 0 mm | - | 329 W/m² | - |
| 1777566740 | 8.89° C | 74% | 1011.8 hPa | 0 mm | - | 414 W/m² | - |
| 1777566437 | 9.44° C | 73% | 1012 hPa | 0 mm | - | 288 W/m² | - |
| 1777566134 | 8.89° C | 73% | 1011.8 hPa | 0 mm | - | 291 W/m² | - |
| 1777565829 | 8.33° C | 74% | 1011.8 hPa | 0 mm | - | 280 W/m² | - |
| 1777565526 | 8.89° C | 73% | 1011.9 hPa | 0 mm | - | 197 W/m² | - |
| 1777565223 | 8.89° C | 75% | 1011.8 hPa | 0 mm | - | 270 W/m² | - |
| 1777564919 | 8.89° C | 75% | 1012 hPa | 0 mm | - | 287 W/m² | - |
| 1777564614 | 8.33° C | 75% | 1011.6 hPa | 0 mm | - | 257 W/m² | - |
| 1777564309 | 8.33° C | 76% | 1012.1 hPa | 0 mm | - | 185 W/m² | - |
| 1777564006 | 8.89° C | 78% | 1011.9 hPa | 0 mm | - | 262 W/m² | - |
| 1777563702 | 8.33° C | 77% | 1011.9 hPa | 0 mm | - | 258 W/m² | - |
| 1777563398 | 8.33° C | 77% | 1012 hPa | 0 mm | - | 173 W/m² | - |
| 1777563093 | 8.33° C | 77% | 1011.9 hPa | 0 mm | - | 157 W/m² | - |
| 1777562789 | 8.89° C | 77% | 1011.9 hPa | 0 mm | - | 202 W/m² | - |
| 1777562487 | 8.89° C | 76% | 1011.8 hPa | 0 mm | - | 226 W/m² | - |
| 1777562184 | 8.33° C | 77% | 1011.6 hPa | 0 mm | - | 346 W/m² | - |
| 1777561882 | 7.78° C | 77% | 1011.6 hPa | 0 mm | - | 377 W/m² | - |
| 1777561579 | 7.78° C | 78% | 1011.7 hPa | 0 mm | - | 270 W/m² | - |
| 1777561274 | 7.78° C | 78% | 1011.8 hPa | 0 mm | - | 241 W/m² | - |
| 1777560974 | 7.78° C | 80% | 1011.8 hPa | 0 mm | - | 219 W/m² | - |
| 1777560670 | 7.78° C | 80% | 1011.6 hPa | 0 mm | - | 178 W/m² | - |
| 1777560368 | 7.78° C | 80% | 1011.5 hPa | 0 mm | - | 223 W/m² | - |
| 1777560066 | 7.78° C | 81% | 1011.5 hPa | 0 mm | - | 249 W/m² | - |
* Rain latest hour (hover to see other rain measurements)
** Current wind speed in m/s (hover to see current wind gust speed)